Airfield :
LOGIN :

Register | Disclaimer

   EN    FR    IT 

 










Legend :    VFR   Marginal VFR   IFR   Intensive IFR   Very Intensive IFR
Visi :
Ceiling :
>= 8 km
>= 3000ft
5 to 8 km
1000 to 3000 ft
1500m to 5 km
500 to 1000 ft
800 to 1500m
200 to 500 ft
< 800m
< 200 ft
Symbols :   Thunderstorms  Fog  Heavy snow  Heavy precipitations  Wind > 20 kt
SIGMETs :     Misc.  Thunderstorms  Icing  Turbulence  Mountain Waves  Volcanic Ashes






- Airport Elevation : 26 ft
- IATA code : GLA


EGPF - Glasgow

CURRENT METAR :
  • 271220Z AUTO 24017KT 9999 FEW031 14/09 Q1000

EXPIRED METARs :
  • 271150Z AUTO 25014KT 9999 SCT029/// SCT034/// BKN044/// //////TCU 14/09 Q0999
  • 271120Z AUTO 25013KT 9999 FEW030 SCT039 13/08 Q0999
  • 271050Z AUTO 24009KT 9999 -RA SCT023/// BKN030/// BKN041/// //////CB 12/10 Q0999
  • 271020Z AUTO 25005KT 210V280 9999 //////CB 12/10 Q0999
  • 270950Z AUTO 23006KT 9999 -RA SCT034 10/09 Q0999

TAF TAF EGPF
Valid from the 27 at 12:00 until the 28 at 12:00 UTC


271055Z 2712/2812 24009KT 9999 FEW015 SCT025
TEMPO 2712/2716 6000 SHRA
PROB30
TEMPO 2712/2715 25015G25KT 4000 +SHRA BKN014 BKN020CB
BECMG 2718/2721 18010KT
PROB30
TEMPO 2720/2804 6000 SHRA BKN014
ATIS : +44 141 887 7449



MET'MAP, your aeronautical weather chart ! - Copyright ORBIFLY December 2007 - Disclaimer

ORBIFLY MET'MAP TEAM :

Programming & Development : Alexandra Zaïnal
Concept & original design : Baudouin d'Aumeries
Assistance for programming : Marc-Olivier Méhu
Technical & hardware support : Manuel Goepfert

Contact : metmap@orbifly.com




SOURCES & CREDITS :

   NOAA